sensor_id;sensor_type;location;lat;lon;timestamp;pressure;altitude;pressure_sealevel;temperature;humidity
11856;BME280;5987;53.140;8.904;2022-09-09T00:02:26;100774.56;;;12.16;100.00
11856;BME280;5987;53.140;8.904;2022-09-09T00:05:40;100776.41;;;12.14;100.00
11856;BME280;5987;53.140;8.904;2022-09-09T00:09:00;100773.19;;;12.07;100.00
11856;BME280;5987;53.140;8.904;2022-09-09T00:12:12;100772.00;;;11.94;100.00
11856;BME280;5987;53.140;8.904;2022-09-09T00:15:25;100764.22;;;11.91;100.00
11856;BME280;5987;53.140;8.904;2022-09-09T00:18:51;100770.75;;;11.82;100.00
11856;BME280;5987;53.140;8.904;2022-09-09T00:22:13;100766.38;;;11.81;100.00
11856;BME280;5987;53.140;8.904;2022-09-09T00:25:29;100763.44;;;11.89;100.00
11856;BME280;5987;53.140;8.904;2022-09-09T00:28:46;100764.44;;;11.86;100.00
11856;BME280;5987;53.140;8.904;2022-09-09T00:31:57;100763.44;;;11.89;100.00
11856;BME280;5987;53.140;8.904;2022-09-09T00:35:18;100772.13;;;11.91;100.00
11856;BME280;5987;53.140;8.904;2022-09-09T00:38:32;100770.41;;;11.90;100.00
11856;BME280;5987;53.140;8.904;2022-09-09T00:41:55;100771.34;;;11.89;100.00
11856;BME280;5987;53.140;8.904;2022-09-09T00:45:25;100762.78;;;11.83;100.00
11856;BME280;5987;53.140;8.904;2022-09-09T00:48:50;100762.31;;;11.74;100.00
11856;BME280;5987;53.140;8.904;2022-09-09T00:52:10;100760.59;;;11.73;100.00
11856;BME280;5987;53.140;8.904;2022-09-09T00:55:26;100752.78;;;11.71;100.00
11856;BME280;5987;53.140;8.904;2022-09-09T00:58:31;100765.16;;;11.69;100.00
11856;BME280;5987;53.140;8.904;2022-09-09T01:01:37;100760.75;;;11.70;100.00
11856;BME280;5987;53.140;8.904;2022-09-09T01:04:41;100758.97;;;11.70;100.00
11856;BME280;5987;53.140;8.904;2022-09-09T01:07:49;100767.66;;;11.72;100.00
11856;BME280;5987;53.140;8.904;2022-09-09T01:11:00;100761.84;;;11.64;100.00
11856;BME280;5987;53.140;8.904;2022-09-09T01:14:20;100769.94;;;11.59;100.00
11856;BME280;5987;53.140;8.904;2022-09-09T01:17:34;100763.94;;;11.56;100.00
11856;BME280;5987;53.140;8.904;2022-09-09T01:20:51;100766.41;;;11.60;100.00
11856;BME280;5987;53.140;8.904;2022-09-09T01:24:16;100762.00;;;11.61;100.00
11856;BME280;5987;53.140;8.904;2022-09-09T01:27:25;100758.19;;;11.68;100.00
11856;BME280;5987;53.140;8.904;2022-09-09T01:30:29;100762.25;;;11.75;100.00
11856;BME280;5987;53.140;8.904;2022-09-09T01:33:34;100758.72;;;11.76;100.00
11856;BME280;5987;53.140;8.904;2022-09-09T01:36:44;100759.56;;;11.77;100.00
11856;BME280;5987;53.140;8.904;2022-09-09T01:39:50;100754.50;;;11.72;100.00
11856;BME280;5987;53.140;8.904;2022-09-09T01:42:55;100751.78;;;11.74;100.00
11856;BME280;5987;53.140;8.904;2022-09-09T01:46:01;100753.59;;;11.73;100.00
11856;BME280;5987;53.140;8.904;2022-09-09T01:49:08;100747.28;;;11.77;100.00
11856;BME280;5987;53.140;8.904;2022-09-09T01:52:12;100747.28;;;11.77;100.00
11856;BME280;5987;53.140;8.904;2022-09-09T01:55:16;100741.47;;;11.69;100.00
11856;BME280;5987;53.140;8.904;2022-09-09T01:58:35;100740.56;;;11.70;100.00
11856;BME280;5987;53.140;8.904;2022-09-09T02:01:58;100740.56;;;11.70;100.00
11856;BME280;5987;53.140;8.904;2022-09-09T02:05:20;100750.28;;;11.68;100.00
11856;BME280;5987;53.140;8.904;2022-09-09T02:08:37;100736.44;;;11.64;100.00
11856;BME280;5987;53.140;8.904;2022-09-09T02:11:45;100739.38;;;11.57;100.00
11856;BME280;5987;53.140;8.904;2022-09-09T02:14:58;100740.41;;;11.53;100.00
11856;BME280;5987;53.140;8.904;2022-09-09T02:18:08;100739.75;;;11.47;100.00
11856;BME280;5987;53.140;8.904;2022-09-09T02:21:14;100741.81;;;11.41;100.00
11856;BME280;5987;53.140;8.904;2022-09-09T02:24:20;100737.38;;;11.41;100.00
11856;BME280;5987;53.140;8.904;2022-09-09T02:27:25;100737.19;;;11.46;100.00
11856;BME280;5987;53.140;8.904;2022-09-09T02:30:32;100739.34;;;11.36;100.00
11856;BME280;5987;53.140;8.904;2022-09-09T02:33:43;100729.03;;;11.31;100.00
11856;BME280;5987;53.140;8.904;2022-09-09T02:36:50;100732.56;;;11.30;100.00
11856;BME280;5987;53.140;8.904;2022-09-09T02:39:57;100740.91;;;11.20;100.00
11856;BME280;5987;53.140;8.904;2022-09-09T02:43:00;100744.47;;;11.19;100.00
11856;BME280;5987;53.140;8.904;2022-09-09T02:46:24;100737.69;;;11.13;100.00
11856;BME280;5987;53.140;8.904;2022-09-09T02:49:46;100730.91;;;11.07;100.00
11856;BME280;5987;53.140;8.904;2022-09-09T02:53:10;100737.97;;;11.05;100.00
11856;BME280;5987;53.140;8.904;2022-09-09T02:56:21;100728.69;;;10.96;100.00
11856;BME280;5987;53.140;8.904;2022-09-09T02:59:28;100728.56;;;10.99;100.00
11856;BME280;5987;53.140;8.904;2022-09-09T03:02:34;100733.09;;;10.96;100.00
11856;BME280;5987;53.140;8.904;2022-09-09T03:05:38;100734.16;;;10.92;100.00
11856;BME280;5987;53.140;8.904;2022-09-09T03:08:45;100737.50;;;10.95;100.00
11856;BME280;5987;53.140;8.904;2022-09-09T03:11:50;100743.00;;;10.89;100.00
11856;BME280;5987;53.140;8.904;2022-09-09T03:14:54;100743.97;;;10.87;100.00
11856;BME280;5987;53.140;8.904;2022-09-09T03:18:00;100742.25;;;10.86;100.00
11856;BME280;5987;53.140;8.904;2022-09-09T03:21:04;100742.38;;;10.82;100.00
11856;BME280;5987;53.140;8.904;2022-09-09T03:24:09;100736.34;;;10.80;100.00
11856;BME280;5987;53.140;8.904;2022-09-09T03:27:12;100746.91;;;10.79;100.00
11856;BME280;5987;53.140;8.904;2022-09-09T03:30:16;100752.16;;;10.79;100.00
11856;BME280;5987;53.140;8.904;2022-09-09T03:33:21;100761.72;;;10.80;100.00
11856;BME280;5987;53.140;8.904;2022-09-09T03:36:25;100755.56;;;10.81;100.00
11856;BME280;5987;53.140;8.904;2022-09-09T03:39:30;100750.94;;;10.88;100.00
11856;BME280;5987;53.140;8.904;2022-09-09T03:42:34;100754.34;;;10.90;100.00
11856;BME280;5987;53.140;8.904;2022-09-09T03:45:39;100756.97;;;10.90;100.00
11856;BME280;5987;53.140;8.904;2022-09-09T03:48:44;100756.75;;;10.96;100.00
11856;BME280;5987;53.140;8.904;2022-09-09T03:51:47;100759.94;;;11.04;100.00
11856;BME280;5987;53.140;8.904;2022-09-09T03:54:51;100753.56;;;11.10;100.00
11856;BME280;5987;53.140;8.904;2022-09-09T03:57:55;100755.88;;;11.18;100.00
11856;BME280;5987;53.140;8.904;2022-09-09T04:01:02;100759.97;;;11.25;100.00
11856;BME280;5987;53.140;8.904;2022-09-09T04:04:07;100757.16;;;11.29;100.00
11856;BME280;5987;53.140;8.904;2022-09-09T04:07:11;100756.00;;;11.37;100.00
11856;BME280;5987;53.140;8.904;2022-09-09T04:10:15;100760.00;;;11.45;100.00
11856;BME280;5987;53.140;8.904;2022-09-09T04:13:19;100752.78;;;11.50;100.00
11856;BME280;5987;53.140;8.904;2022-09-09T04:16:23;100756.94;;;11.56;100.00
11856;BME280;5987;53.140;8.904;2022-09-09T04:19:28;100755.88;;;11.60;100.00
11856;BME280;5987;53.140;8.904;2022-09-09T04:22:31;100754.88;;;11.63;100.00
11856;BME280;5987;53.140;8.904;2022-09-09T04:25:36;100760.03;;;11.66;100.00
11856;BME280;5987;53.140;8.904;2022-09-09T04:28:53;100768.75;;;11.66;100.00
11856;BME280;5987;53.140;8.904;2022-09-09T04:31:58;100765.16;;;11.69;100.00
11856;BME280;5987;53.140;8.904;2022-09-09T04:35:01;100773.03;;;11.69;100.00
11856;BME280;5987;53.140;8.904;2022-09-09T04:38:06;100772.00;;;11.73;100.00
11856;BME280;5987;53.140;8.904;2022-09-09T04:41:12;100773.44;;;11.80;100.00
11856;BME280;5987;53.140;8.904;2022-09-09T04:44:17;100778.56;;;11.83;100.00
11856;BME280;5987;53.140;8.904;2022-09-09T04:47:20;100776.59;;;11.89;100.00
11856;BME280;5987;53.140;8.904;2022-09-09T04:50:24;100787.13;;;11.89;100.00
11856;BME280;5987;53.140;8.904;2022-09-09T04:53:28;100780.00;;;11.91;100.00
11856;BME280;5987;53.140;8.904;2022-09-09T04:56:32;100782.53;;;11.94;100.00
11856;BME280;5987;53.140;8.904;2022-09-09T04:59:37;100790.25;;;11.98;100.00
11856;BME280;5987;53.140;8.904;2022-09-09T05:02:41;100788.47;;;11.99;100.00
11856;BME280;5987;53.140;8.904;2022-09-09T05:05:45;100801.53;;;12.00;100.00
11856;BME280;5987;53.140;8.904;2022-09-09T05:08:49;100795.44;;;12.00;100.00
11856;BME280;5987;53.140;8.904;2022-09-09T05:11:53;100791.63;;;12.07;100.00
11856;BME280;5987;53.140;8.904;2022-09-09T05:14:58;100798.44;;;12.11;100.00
11856;BME280;5987;53.140;8.904;2022-09-09T05:18:02;100796.44;;;12.16;100.00
11856;BME280;5987;53.140;8.904;2022-09-09T05:21:07;100808.78;;;12.16;100.00
11856;BME280;5987;53.140;8.904;2022-09-09T05:24:11;100800.63;;;12.22;100.00
11856;BME280;5987;53.140;8.904;2022-09-09T05:27:15;100806.88;;;12.20;100.00
11856;BME280;5987;53.140;8.904;2022-09-09T05:30:22;100809.69;;;12.15;100.00
11856;BME280;5987;53.140;8.904;2022-09-09T05:33:28;100805.44;;;12.12;100.00
11856;BME280;5987;53.140;8.904;2022-09-09T05:36:32;100803.56;;;12.14;100.00
11856;BME280;5987;53.140;8.904;2022-09-09T05:39:36;100812.00;;;12.23;100.00
11856;BME280;5987;53.140;8.904;2022-09-09T05:42:40;100813.72;;;12.24;100.00
11856;BME280;5987;53.140;8.904;2022-09-09T05:45:45;100821.53;;;12.25;100.00
11856;BME280;5987;53.140;8.904;2022-09-09T05:48:51;100825.69;;;12.31;100.00
11856;BME280;5987;53.140;8.904;2022-09-09T05:51:55;100828.03;;;12.37;100.00
11856;BME280;5987;53.140;8.904;2022-09-09T05:54:59;100822.63;;;12.40;100.00
11856;BME280;5987;53.140;8.904;2022-09-09T05:58:02;100825.91;;;12.45;100.00
11856;BME280;5987;53.140;8.904;2022-09-09T06:01:09;100824.56;;;12.56;100.00
11856;BME280;5987;53.140;8.904;2022-09-09T06:04:13;100820.78;;;12.61;100.00
11856;BME280;5987;53.140;8.904;2022-09-09T06:07:17;100814.03;;;12.56;100.00
11856;BME280;5987;53.140;8.904;2022-09-09T06:10:21;100823.00;;;12.51;100.00
11856;BME280;5987;53.140;8.904;2022-09-09T06:13:25;100819.88;;;12.62;100.00
11856;BME280;5987;53.140;8.904;2022-09-09T06:16:32;100825.28;;;12.59;100.00
11856;BME280;5987;53.140;8.904;2022-09-09T06:19:36;100823.94;;;12.69;100.00
11856;BME280;5987;53.140;8.904;2022-09-09T06:22:40;100830.22;;;12.86;100.00
11856;BME280;5987;53.140;8.904;2022-09-09T06:25:44;100822.88;;;12.93;100.00
11856;BME280;5987;53.140;8.904;2022-09-09T06:28:50;100828.69;;;12.99;100.00
11856;BME280;5987;53.140;8.904;2022-09-09T06:31:56;100819.81;;;13.02;100.00
11856;BME280;5987;53.140;8.904;2022-09-09T06:35:00;100820.28;;;13.10;100.00
11856;BME280;5987;53.140;8.904;2022-09-09T06:38:04;100817.81;;;13.07;100.00
11856;BME280;5987;53.140;8.904;2022-09-09T06:41:10;100823.00;;;13.09;100.00
11856;BME280;5987;53.140;8.904;2022-09-09T06:44:14;100829.84;;;13.32;100.00
11856;BME280;5987;53.140;8.904;2022-09-09T06:47:20;100822.13;;;13.46;100.00
11856;BME280;5987;53.140;8.904;2022-09-09T06:50:24;100815.44;;;13.39;100.00
11856;BME280;5987;53.140;8.904;2022-09-09T06:53:28;100831.38;;;13.36;100.00
11856;BME280;5987;53.140;8.904;2022-09-09T06:56:34;100828.63;;;13.39;100.00
11856;BME280;5987;53.140;8.904;2022-09-09T06:59:38;100823.34;;;13.39;100.00
11856;BME280;5987;53.140;8.904;2022-09-09T07:02:43;100825.31;;;13.70;100.00
11856;BME280;5987;53.140;8.904;2022-09-09T07:05:54;100826.63;;;13.79;100.00
11856;BME280;5987;53.140;8.904;2022-09-09T07:09:02;100830.47;;;13.91;100.00
11856;BME280;5987;53.140;8.904;2022-09-09T07:12:07;100825.78;;;13.96;100.00
11856;BME280;5987;53.140;8.904;2022-09-09T07:15:21;100829.34;;;14.13;100.00
11856;BME280;5987;53.140;8.904;2022-09-09T07:18:27;100825.44;;;14.37;100.00
11856;BME280;5987;53.140;8.904;2022-09-09T07:21:32;100831.13;;;14.63;100.00
11856;BME280;5987;53.140;8.904;2022-09-09T07:24:36;100837.88;;;14.69;100.00
11856;BME280;5987;53.140;8.904;2022-09-09T07:27:40;100840.03;;;14.78;100.00
11856;BME280;5987;53.140;8.904;2022-09-09T07:30:43;100831.41;;;15.22;100.00
11856;BME280;5987;53.140;8.904;2022-09-09T07:33:50;100840.94;;;15.41;100.00
11856;BME280;5987;53.140;8.904;2022-09-09T07:36:54;100836.53;;;15.72;100.00
11856;BME280;5987;53.140;8.904;2022-09-09T07:39:59;100836.91;;;15.66;100.00
11856;BME280;5987;53.140;8.904;2022-09-09T07:43:06;100836.88;;;15.82;100.00
11856;BME280;5987;53.140;8.904;2022-09-09T07:46:12;100836.47;;;16.04;100.00
11856;BME280;5987;53.140;8.904;2022-09-09T07:49:18;100835.34;;;16.22;100.00
11856;BME280;5987;53.140;8.904;2022-09-09T07:52:29;100839.91;;;16.35;98.19
11856;BME280;5987;53.140;8.904;2022-09-09T07:55:33;100841.13;;;16.58;96.13
11856;BME280;5987;53.140;8.904;2022-09-09T07:58:37;100843.50;;;16.62;94.17
11856;BME280;5987;53.140;8.904;2022-09-09T08:01:44;100841.72;;;16.49;91.76
11856;BME280;5987;53.140;8.904;2022-09-09T08:04:49;100838.75;;;16.53;90.54
11856;BME280;5987;53.140;8.904;2022-09-09T08:07:53;100841.03;;;16.74;89.70
11856;BME280;5987;53.140;8.904;2022-09-09T08:11:08;100834.00;;;16.87;88.33
11856;BME280;5987;53.140;8.904;2022-09-09T08:14:13;100838.00;;;16.66;86.93
11856;BME280;5987;53.140;8.904;2022-09-09T08:17:17;100840.47;;;16.97;86.98
11856;BME280;5987;53.140;8.904;2022-09-09T08:20:22;100839.50;;;16.98;86.42
11856;BME280;5987;53.140;8.904;2022-09-09T08:23:26;100841.94;;;17.16;85.40
11856;BME280;5987;53.140;8.904;2022-09-09T08:26:31;100840.06;;;17.31;85.74
11856;BME280;5987;53.140;8.904;2022-09-09T08:29:36;100834.03;;;17.96;85.79
11856;BME280;5987;53.140;8.904;2022-09-09T08:32:41;100831.94;;;17.87;82.63
11856;BME280;5987;53.140;8.904;2022-09-09T08:35:51;100834.88;;;18.10;82.39
11856;BME280;5987;53.140;8.904;2022-09-09T08:38:57;100838.19;;;18.00;81.39
11856;BME280;5987;53.140;8.904;2022-09-09T08:42:27;100841.44;;;17.91;81.21
11856;BME280;5987;53.140;8.904;2022-09-09T08:45:52;100850.50;;;18.02;81.09
11856;BME280;5987;53.140;8.904;2022-09-09T08:49:07;100846.28;;;18.12;81.57
11856;BME280;5987;53.140;8.904;2022-09-09T08:52:25;100851.81;;;18.22;80.21
11856;BME280;5987;53.140;8.904;2022-09-09T08:55:41;100846.88;;;18.03;79.52
11856;BME280;5987;53.140;8.904;2022-09-09T08:58:49;100850.91;;;17.55;78.36
11856;BME280;5987;53.140;8.904;2022-09-09T09:02:06;100850.28;;;17.92;79.45
11856;BME280;5987;53.140;8.904;2022-09-09T09:05:27;100851.22;;;17.63;78.29
11856;BME280;5987;53.140;8.904;2022-09-09T09:08:45;100850.50;;;17.34;78.54
11856;BME280;5987;53.140;8.904;2022-09-09T09:11:55;100849.94;;;17.56;79.30
11856;BME280;5987;53.140;8.904;2022-09-09T09:15:17;100850.31;;;18.05;79.44
11856;BME280;5987;53.140;8.904;2022-09-09T09:18:22;100852.84;;;18.19;77.44
11856;BME280;5987;53.140;8.904;2022-09-09T09:21:35;100857.34;;;18.31;77.62
11856;BME280;5987;53.140;8.904;2022-09-09T09:24:50;100855.28;;;18.48;76.19
11856;BME280;5987;53.140;8.904;2022-09-09T09:27:59;100850.28;;;18.56;75.35
11856;BME280;5987;53.140;8.904;2022-09-09T09:31:06;100851.75;;;18.86;74.12
11856;BME280;5987;53.140;8.904;2022-09-09T09:34:10;100858.03;;;18.85;73.66
11856;BME280;5987;53.140;8.904;2022-09-09T09:37:55;100858.97;;;18.84;72.91
11856;BME280;5987;53.140;8.904;2022-09-09T09:41:34;100858.34;;;18.67;72.60
11856;BME280;5987;53.140;8.904;2022-09-09T09:44:44;100854.34;;;18.88;73.29
11856;BME280;5987;53.140;8.904;2022-09-09T09:47:59;100846.72;;;19.07;71.98
11856;BME280;5987;53.140;8.904;2022-09-09T09:51:10;100845.34;;;19.01;71.47
11856;BME280;5987;53.140;8.904;2022-09-09T09:54:27;100838.00;;;19.29;71.33
11856;BME280;5987;53.140;8.904;2022-09-09T09:57:34;100836.75;;;19.22;69.80
11856;BME280;5987;53.140;8.904;2022-09-09T10:00:48;100843.84;;;19.34;69.96
11856;BME280;5987;53.140;8.904;2022-09-09T10:03:54;100848.28;;;19.10;69.31
11856;BME280;5987;53.140;8.904;2022-09-09T10:06:58;100852.84;;;18.71;70.09
11856;BME280;5987;53.140;8.904;2022-09-09T10:10:02;100847.84;;;18.53;70.32
11856;BME280;5987;53.140;8.904;2022-09-09T10:13:16;100856.50;;;18.44;71.13
11856;BME280;5987;53.140;8.904;2022-09-09T10:16:41;100851.59;;;18.25;72.72
11856;BME280;5987;53.140;8.904;2022-09-09T10:20:12;100861.38;;;18.24;73.38
11856;BME280;5987;53.140;8.904;2022-09-09T10:23:43;100862.09;;;18.00;74.80
11856;BME280;5987;53.140;8.904;2022-09-09T10:26:56;100860.38;;;17.99;75.87
11856;BME280;5987;53.140;8.904;2022-09-09T10:30:17;100866.69;;;18.24;76.84
11856;BME280;5987;53.140;8.904;2022-09-09T10:33:30;100859.88;;;18.33;76.94
11856;BME280;5987;53.140;8.904;2022-09-09T10:36:45;100857.34;;;18.31;76.88
11856;BME280;5987;53.140;8.904;2022-09-09T10:40:02;100865.63;;;18.40;76.65
11856;BME280;5987;53.140;8.904;2022-09-09T10:43:21;100860.00;;;18.44;76.17
11856;BME280;5987;53.140;8.904;2022-09-09T10:46:45;100857.31;;;18.57;76.53
11856;BME280;5987;53.140;8.904;2022-09-09T10:50:22;100857.06;;;18.73;75.47
11856;BME280;5987;53.140;8.904;2022-09-09T10:54:07;100861.97;;;18.79;74.17
11856;BME280;5987;53.140;8.904;2022-09-09T10:57:25;100851.06;;;19.08;72.75
11856;BME280;5987;53.140;8.904;2022-09-09T11:00:40;100844.72;;;19.46;71.81
11856;BME280;5987;53.140;8.904;2022-09-09T11:03:55;100850.94;;;19.47;70.10
11856;BME280;5987;53.140;8.904;2022-09-09T11:07:06;100849.56;;;19.41;69.10
11856;BME280;5987;53.140;8.904;2022-09-09T11:10:22;100849.22;;;19.46;68.20
11856;BME280;5987;53.140;8.904;2022-09-09T11:13:35;100851.94;;;19.09;68.38
11856;BME280;5987;53.140;8.904;2022-09-09T11:16:45;100856.00;;;19.01;68.65
11856;BME280;5987;53.140;8.904;2022-09-09T11:19:53;100852.25;;;19.04;68.58
11856;BME280;5987;53.140;8.904;2022-09-09T11:23:02;100862.41;;;18.86;68.63
11856;BME280;5987;53.140;8.904;2022-09-09T11:26:14;100853.66;;;18.84;67.80
11856;BME280;5987;53.140;8.904;2022-09-09T11:30:17;100843.50;;;19.15;67.52
11856;BME280;5987;53.140;8.904;2022-09-09T11:34:12;100846.44;;;19.23;66.43
11856;BME280;5987;53.140;8.904;2022-09-09T11:37:49;100843.44;;;19.52;66.13
11856;BME280;5987;53.140;8.904;2022-09-09T11:40:58;100845.84;;;19.44;65.87
11856;BME280;5987;53.140;8.904;2022-09-09T11:44:11;100851.25;;;19.66;65.87
11856;BME280;5987;53.140;8.904;2022-09-09T11:47:22;100843.44;;;19.76;65.75
11856;BME280;5987;53.140;8.904;2022-09-09T11:50:36;100845.97;;;19.78;65.08
11856;BME280;5987;53.140;8.904;2022-09-09T11:54:00;100844.00;;;20.04;64.76
11856;BME280;5987;53.140;8.904;2022-09-09T11:57:23;100842.50;;;19.88;64.29
11856;BME280;5987;53.140;8.904;2022-09-09T12:00:34;100836.94;;;19.80;64.86
11856;BME280;5987;53.140;8.904;2022-09-09T12:03:43;100845.53;;;19.84;65.39
11856;BME280;5987;53.140;8.904;2022-09-09T12:06:53;100848.09;;;19.61;65.43
11856;BME280;5987;53.140;8.904;2022-09-09T12:10:05;100862.00;;;19.41;65.47
11856;BME280;5987;53.140;8.904;2022-09-09T12:13:26;100870.06;;;19.52;66.85
11856;BME280;5987;53.140;8.904;2022-09-09T12:16:33;100878.31;;;19.12;69.25
11856;BME280;5987;53.140;8.904;2022-09-09T12:19:37;100870.06;;;18.78;71.20
11856;BME280;5987;53.140;8.904;2022-09-09T12:26:29;100860.72;;;18.33;75.07
11856;BME280;5987;53.140;8.904;2022-09-09T12:29:44;100872.53;;;18.29;76.38
11856;BME280;5987;53.140;8.904;2022-09-09T12:33:02;100875.63;;;18.23;77.79
11856;BME280;5987;53.140;8.904;2022-09-09T12:36:15;100889.72;;;18.11;78.47
11856;BME280;5987;53.140;8.904;2022-09-09T12:39:34;100887.28;;;17.80;79.21
11856;BME280;5987;53.140;8.904;2022-09-09T12:42:41;100887.59;;;17.76;79.50
11856;BME280;5987;53.140;8.904;2022-09-09T12:45:45;100885.75;;;17.63;80.83
11856;BME280;5987;53.140;8.904;2022-09-09T12:48:49;100880.41;;;17.51;82.01
11856;BME280;5987;53.140;8.904;2022-09-09T12:51:53;100887.81;;;17.04;83.50
11856;BME280;5987;53.140;8.904;2022-09-09T12:55:02;100882.31;;;16.63;85.17
11856;BME280;5987;53.140;8.904;2022-09-09T12:58:17;100880.78;;;16.45;87.00
11856;BME280;5987;53.140;8.904;2022-09-09T13:01:24;100880.56;;;16.19;87.93
11856;BME280;5987;53.140;8.904;2022-09-09T13:04:28;100881.88;;;16.12;89.43
11856;BME280;5987;53.140;8.904;2022-09-09T13:07:31;100877.31;;;16.00;90.28
11856;BME280;5987;53.140;8.904;2022-09-09T13:10:41;100881.44;;;15.89;91.13
11856;BME280;5987;53.140;8.904;2022-09-09T13:14:00;100879.03;;;15.85;92.05
11856;BME280;5987;53.140;8.904;2022-09-09T13:17:06;100865.91;;;15.83;92.54
11856;BME280;5987;53.140;8.904;2022-09-09T13:20:17;100867.63;;;15.84;92.74
11856;BME280;5987;53.140;8.904;2022-09-09T13:23:26;100862.31;;;15.84;92.38
11856;BME280;5987;53.140;8.904;2022-09-09T13:26:30;100853.44;;;15.85;92.16
11856;BME280;5987;53.140;8.904;2022-09-09T13:29:36;100854.22;;;16.02;91.77
11856;BME280;5987;53.140;8.904;2022-09-09T13:32:41;100855.88;;;16.19;91.66
11856;BME280;5987;53.140;8.904;2022-09-09T13:35:49;100855.41;;;16.12;90.20
11856;BME280;5987;53.140;8.904;2022-09-09T13:38:56;100865.91;;;16.28;90.02
11856;BME280;5987;53.140;8.904;2022-09-09T13:42:03;100862.91;;;16.49;89.66
11856;BME280;5987;53.140;8.904;2022-09-09T13:45:20;100865.28;;;16.82;89.54
11856;BME280;5987;53.140;8.904;2022-09-09T13:48:25;100844.81;;;16.98;88.33
11856;BME280;5987;53.140;8.904;2022-09-09T13:51:34;100857.19;;;17.12;87.34
11856;BME280;5987;53.140;8.904;2022-09-09T13:54:40;100856.94;;;17.03;86.14
11856;BME280;5987;53.140;8.904;2022-09-09T13:57:51;100858.59;;;17.18;85.53
11856;BME280;5987;53.140;8.904;2022-09-09T14:00:56;100857.72;;;17.32;85.34
11856;BME280;5987;53.140;8.904;2022-09-09T14:04:00;100865.88;;;17.56;84.94
11856;BME280;5987;53.140;8.904;2022-09-09T14:07:04;100856.34;;;17.66;84.54
11856;BME280;5987;53.140;8.904;2022-09-09T14:10:09;100856.78;;;17.73;84.30
11856;BME280;5987;53.140;8.904;2022-09-09T14:13:12;100864.97;;;17.97;83.55
11856;BME280;5987;53.140;8.904;2022-09-09T14:16:19;100866.97;;;17.94;82.13
11856;BME280;5987;53.140;8.904;2022-09-09T14:19:23;100877.53;;;17.81;81.49
11856;BME280;5987;53.140;8.904;2022-09-09T14:22:27;100888.47;;;17.76;81.30
11856;BME280;5987;53.140;8.904;2022-09-09T14:25:31;100886.75;;;17.75;80.88
11856;BME280;5987;53.140;8.904;2022-09-09T14:28:36;100888.88;;;17.83;81.07
11856;BME280;5987;53.140;8.904;2022-09-09T14:31:58;100883.59;;;17.56;81.57
11856;BME280;5987;53.140;8.904;2022-09-09T14:35:04;100877.53;;;17.26;82.63
11856;BME280;5987;53.140;8.904;2022-09-09T14:38:08;100874.28;;;16.94;84.06
11856;BME280;5987;53.140;8.904;2022-09-09T14:41:19;100874.00;;;16.70;85.71
11856;BME280;5987;53.140;8.904;2022-09-09T14:44:24;100872.00;;;16.59;87.08
11856;BME280;5987;53.140;8.904;2022-09-09T14:47:29;100871.13;;;16.44;88.25
11856;BME280;5987;53.140;8.904;2022-09-09T14:50:33;100865.47;;;16.36;88.95
11856;BME280;5987;53.140;8.904;2022-09-09T14:53:43;100862.13;;;16.32;89.80
11856;BME280;5987;53.140;8.904;2022-09-09T14:56:47;100866.09;;;16.25;90.76
11856;BME280;5987;53.140;8.904;2022-09-09T14:59:51;100877.81;;;16.21;91.10
11856;BME280;5987;53.140;8.904;2022-09-09T15:02:57;100868.06;;;16.21;91.97
11856;BME280;5987;53.140;8.904;2022-09-09T15:06:06;100869.19;;;16.17;92.84
11856;BME280;5987;53.140;8.904;2022-09-09T15:09:11;100868.91;;;16.07;93.33
11856;BME280;5987;53.140;8.904;2022-09-09T15:12:15;100866.34;;;16.06;94.26
11856;BME280;5987;53.140;8.904;2022-09-09T15:15:21;100853.56;;;15.98;95.01
11856;BME280;5987;53.140;8.904;2022-09-09T15:18:26;100849.31;;;15.95;95.61
11856;BME280;5987;53.140;8.904;2022-09-09T15:21:32;100857.16;;;15.97;96.37
11856;BME280;5987;53.140;8.904;2022-09-09T15:24:36;100853.25;;;15.88;96.92
11856;BME280;5987;53.140;8.904;2022-09-09T15:27:40;100853.44;;;15.85;97.78
11856;BME280;5987;53.140;8.904;2022-09-09T15:30:43;100853.00;;;15.77;98.09
11856;BME280;5987;53.140;8.904;2022-09-09T15:33:50;100846.97;;;15.59;98.41
11856;BME280;5987;53.140;8.904;2022-09-09T15:36:54;100844.41;;;15.57;99.00
11856;BME280;5987;53.140;8.904;2022-09-09T15:39:58;100837.09;;;15.47;99.31
11856;BME280;5987;53.140;8.904;2022-09-09T15:43:04;100828.31;;;15.46;99.70
11856;BME280;5987;53.140;8.904;2022-09-09T15:46:25;100824.13;;;15.42;100.00
11856;BME280;5987;53.140;8.904;2022-09-09T15:49:31;100840.00;;;15.42;100.00
11856;BME280;5987;53.140;8.904;2022-09-09T15:52:34;100837.63;;;15.37;100.00
11856;BME280;5987;53.140;8.904;2022-09-09T15:55:38;100843.94;;;15.35;100.00
11856;BME280;5987;53.140;8.904;2022-09-09T15:58:42;100837.97;;;15.31;100.00
11856;BME280;5987;53.140;8.904;2022-09-09T16:01:46;100837.13;;;15.31;100.00
11856;BME280;5987;53.140;8.904;2022-09-09T16:04:51;100830.13;;;15.30;100.00
11856;BME280;5987;53.140;8.904;2022-09-09T16:07:55;100822.44;;;15.25;100.00
11856;BME280;5987;53.140;8.904;2022-09-09T16:11:06;100825.38;;;15.20;100.00
11856;BME280;5987;53.140;8.904;2022-09-09T16:14:13;100821.75;;;15.21;100.00
11856;BME280;5987;53.140;8.904;2022-09-09T16:17:18;100823.84;;;15.16;100.00
11856;BME280;5987;53.140;8.904;2022-09-09T16:20:24;100822.44;;;15.09;100.00
11856;BME280;5987;53.140;8.904;2022-09-09T16:23:28;100819.56;;;15.14;100.00
11856;BME280;5987;53.140;8.904;2022-09-09T16:26:34;100816.41;;;15.07;100.00
11856;BME280;5987;53.140;8.904;2022-09-09T16:29:38;100821.09;;;15.02;100.00
11856;BME280;5987;53.140;8.904;2022-09-09T16:32:42;100832.84;;;14.96;100.00
11856;BME280;5987;53.140;8.904;2022-09-09T16:35:47;100840.03;;;14.94;100.00
11856;BME280;5987;53.140;8.904;2022-09-09T16:38:53;100836.28;;;14.98;100.00
11856;BME280;5987;53.140;8.904;2022-09-09T16:41:57;100839.69;;;15.00;100.00